createdAt,value
2023-01-20T00:00:25.561Z,71.85
2023-01-20T00:05:25.775Z,71.90
2023-01-20T00:10:25.390Z,71.94
2023-01-20T00:15:25.334Z,71.96
2023-01-20T00:20:25.269Z,71.95
2023-01-20T00:25:25.189Z,71.98
2023-01-20T00:30:25.239Z,72.01
2023-01-20T00:35:25.056Z,72.03
2023-01-20T00:40:25.008Z,72.03
2023-01-20T00:45:24.932Z,72.06
2023-01-20T00:50:24.876Z,72.08
2023-01-20T00:55:24.797Z,72.10
2023-01-20T01:00:24.760Z,72.10
2023-01-20T01:05:43.695Z,72.08
2023-01-20T01:10:36.121Z,72.11
2023-01-20T01:15:36.054Z,72.15
2023-01-20T01:20:35.960Z,72.14
2023-01-20T01:25:35.904Z,72.17
2023-01-20T01:30:35.887Z,72.19
2023-01-20T01:35:35.794Z,72.15
2023-01-20T01:40:35.712Z,72.15
2023-01-20T01:45:35.657Z,72.15
2023-01-20T01:50:35.581Z,72.17
2023-01-20T01:55:35.520Z,72.18
2023-01-20T02:00:35.480Z,72.17
2023-01-20T02:05:35.459Z,72.16
2023-01-20T02:10:35.357Z,72.15
2023-01-20T02:15:35.246Z,72.15
2023-01-20T02:20:35.195Z,72.16
2023-01-20T02:25:35.142Z,72.19
2023-01-20T02:30:35.089Z,72.20
2023-01-20T02:35:35.165Z,72.21
2023-01-20T02:40:34.923Z,72.19
2023-01-20T02:45:34.902Z,72.19
2023-01-20T02:50:34.793Z,72.19
2023-01-20T02:55:34.748Z,72.18
2023-01-20T03:00:34.667Z,72.19
2023-01-20T03:05:34.713Z,72.18
2023-01-20T03:10:34.535Z,72.19
2023-01-20T03:15:34.489Z,72.17
2023-01-20T03:20:34.418Z,72.18
2023-01-20T03:25:34.365Z,72.19
2023-01-20T03:30:34.357Z,72.21
2023-01-20T03:35:34.239Z,72.20
2023-01-20T03:40:34.150Z,72.21
2023-01-20T03:45:34.092Z,72.21
2023-01-20T03:50:34.019Z,72.23
2023-01-20T03:55:33.952Z,72.26
2023-01-20T04:00:33.894Z,72.27
2023-01-20T04:05:33.827Z,72.28
2023-01-20T04:10:33.740Z,72.26
2023-01-20T04:15:33.762Z,72.26
2023-01-20T04:20:33.625Z,72.32
2023-01-20T04:25:33.592Z,72.36
2023-01-20T04:30:33.507Z,72.37
2023-01-20T04:35:33.439Z,72.40
2023-01-20T04:40:33.379Z,72.43
2023-01-20T04:45:33.324Z,72.41
2023-01-20T04:50:33.232Z,72.44
2023-01-20T04:55:33.179Z,72.48
2023-01-20T05:00:33.111Z,72.51
2023-01-20T05:05:33.120Z,72.53
2023-01-20T05:10:32.980Z,72.55
2023-01-20T05:15:52.668Z,72.54
2023-01-20T05:20:45.028Z,72.54
2023-01-20T05:25:44.951Z,72.56
2023-01-20T05:30:44.930Z,72.57
2023-01-20T05:35:44.811Z,72.61
2023-01-20T05:40:44.761Z,72.65
2023-01-20T05:45:44.690Z,72.68
2023-01-20T05:50:44.639Z,72.71
2023-01-20T05:55:44.573Z,72.70
2023-01-20T06:00:44.520Z,72.66
2023-01-20T06:05:44.435Z,72.65
2023-01-20T06:10:44.522Z,72.67
2023-01-20T06:15:44.314Z,72.70
2023-01-20T06:20:44.259Z,72.72
2023-01-20T06:25:44.269Z,72.73
2023-01-20T06:30:44.161Z,72.68
2023-01-20T06:35:44.044Z,72.71
2023-01-20T06:40:43.996Z,72.74
2023-01-20T06:45:43.913Z,72.76
2023-01-20T06:50:43.930Z,72.78
2023-01-20T06:55:44.626Z,72.85
2023-01-20T07:00:43.771Z,72.89
2023-01-20T07:05:43.735Z,72.89
2023-01-20T07:10:43.609Z,72.93
2023-01-20T07:15:43.532Z,72.87
2023-01-20T07:20:43.463Z,72.85
2023-01-20T07:25:43.404Z,72.84
2023-01-20T07:30:43.370Z,72.74
2023-01-20T07:35:43.283Z,72.65
2023-01-20T07:40:43.243Z,72.56
2023-01-20T07:45:43.206Z,72.39
2023-01-20T07:50:43.097Z,72.34
2023-01-20T07:55:43.018Z,72.41
2023-01-20T08:00:42.970Z,72.45
2023-01-20T08:05:42.874Z,72.46
2023-01-20T08:10:42.893Z,72.34
2023-01-20T08:15:42.765Z,72.21
2023-01-20T08:20:42.698Z,72.00
2023-01-20T08:25:42.686Z,71.83
2023-01-20T08:30:42.688Z,71.67
2023-01-20T08:35:42.638Z,70.87
2023-01-20T08:40:42.449Z,70.53
2023-01-20T08:45:42.416Z,71.16
2023-01-20T08:50:42.320Z,71.02
2023-01-20T08:55:42.245Z,70.60
2023-01-20T09:00:42.203Z,70.41
2023-01-20T09:05:42.120Z,70.37
2023-01-20T09:10:42.056Z,70.40
2023-01-20T09:15:42.097Z,70.28
2023-01-20T09:20:41.947Z,70.32
2023-01-20T09:25:41.850Z,70.46
2023-01-20T09:30:41.880Z,70.75
2023-01-20T09:35:41.738Z,70.97
2023-01-20T09:40:41.735Z,71.05
2023-01-20T09:45:41.600Z,69.94
2023-01-20T09:50:41.564Z,68.85
2023-01-20T09:55:41.430Z,66.66
2023-01-20T10:00:41.393Z,67.28
2023-01-20T10:05:41.348Z,68.90
2023-01-20T10:10:41.302Z,69.69
2023-01-20T10:15:41.242Z,69.79
2023-01-20T10:20:41.149Z,69.74
2023-01-20T10:25:41.068Z,69.63
2023-01-20T10:30:41.053Z,69.38
2023-01-20T10:35:40.936Z,69.02
2023-01-20T10:40:40.996Z,69.04
2023-01-20T10:45:40.803Z,68.23
2023-01-20T10:50:40.740Z,68.79
2023-01-20T10:55:40.774Z,68.83
2023-01-20T11:00:40.641Z,68.59
2023-01-20T11:05:40.516Z,67.61
2023-01-20T11:10:40.518Z,68.20
2023-01-20T11:15:40.408Z,67.99
2023-01-20T11:20:40.375Z,68.71
2023-01-20T11:25:40.268Z,69.43
2023-01-20T11:30:40.289Z,69.85
2023-01-20T11:35:40.153Z,69.86
2023-01-20T11:40:40.116Z,69.49
2023-01-20T11:45:40.058Z,69.31
2023-01-20T11:50:39.995Z,69.07
2023-01-20T11:55:39.890Z,69.08
2023-01-20T12:00:39.829Z,69.11
2023-01-20T12:05:39.740Z,69.11
2023-01-20T12:10:39.708Z,69.28
2023-01-20T12:15:42.740Z,69.20
2023-01-20T12:20:54.470Z,69.33
2023-01-20T12:25:43.362Z,69.29
2023-01-20T12:30:43.645Z,69.09
2023-01-20T12:35:44.416Z,68.68
2023-01-20T12:40:43.124Z,68.42
2023-01-20T12:45:46.434Z,68.57
2023-01-20T12:51:03.073Z,68.86
2023-01-20T12:56:03.328Z,68.99
2023-01-20T13:00:44.493Z,69.21
2023-01-20T13:06:04.224Z,69.39
2023-01-20T13:16:52.549Z,69.91
2023-01-20T13:21:28.551Z,69.97
2023-01-20T13:26:28.530Z,70.05
2023-01-20T13:31:28.543Z,70.11
2023-01-20T13:36:28.392Z,70.10
2023-01-20T13:41:28.331Z,70.08
2023-01-20T13:46:28.245Z,70.00
2023-01-20T13:51:28.235Z,69.89
2023-01-20T13:56:28.140Z,69.80
2023-01-20T14:01:28.112Z,69.87
2023-01-20T14:06:28.028Z,69.99
2023-01-20T14:11:27.929Z,70.17
2023-01-20T14:16:28.054Z,70.21
2023-01-20T14:21:27.791Z,70.28
2023-01-20T14:26:27.762Z,70.37
2023-01-20T14:31:27.769Z,70.50
2023-01-20T14:36:27.963Z,70.69
2023-01-20T14:41:27.780Z,70.88
2023-01-20T14:46:27.581Z,71.05
2023-01-20T14:51:27.417Z,71.23
2023-01-20T14:56:27.355Z,71.31
2023-01-20T15:01:27.351Z,71.36
2023-01-20T15:06:27.302Z,71.37
2023-01-20T15:11:27.164Z,71.44
2023-01-20T15:16:27.080Z,71.47
2023-01-20T15:21:27.032Z,71.54
2023-01-20T15:26:26.987Z,71.61
2023-01-20T15:31:26.966Z,71.70
2023-01-20T15:36:26.856Z,71.78
2023-01-20T15:41:26.828Z,71.86
2023-01-20T15:46:26.714Z,71.96
2023-01-20T15:51:28.063Z,72.04
2023-01-20T15:56:26.635Z,72.07
2023-01-20T16:01:26.544Z,72.10
2023-01-20T16:06:26.488Z,72.13
2023-01-20T16:11:26.416Z,72.16
2023-01-20T16:16:29.489Z,72.18
2023-01-20T16:21:26.281Z,72.21
2023-01-20T16:26:26.194Z,72.23
2023-01-20T16:31:26.231Z,72.30
2023-01-20T16:36:26.085Z,72.51
2023-01-20T16:41:26.021Z,72.63
2023-01-20T16:46:25.936Z,72.66
2023-01-20T16:51:25.917Z,72.68
2023-01-20T16:56:25.847Z,72.71
2023-01-20T17:01:25.730Z,72.73
2023-01-20T17:06:25.700Z,72.73
2023-01-20T17:11:25.612Z,72.86
2023-01-20T17:16:25.664Z,72.88
2023-01-20T17:21:25.519Z,72.94
2023-01-20T17:26:25.415Z,72.95
2023-01-20T17:31:25.451Z,72.98
2023-01-20T17:36:25.327Z,73.01
2023-01-20T17:41:25.212Z,72.99
2023-01-20T17:46:25.200Z,73.01
2023-01-20T17:51:25.096Z,73.05
2023-01-20T17:56:25.067Z,73.05
2023-01-20T18:01:25.020Z,73.09
2023-01-20T18:06:24.918Z,73.08
2023-01-20T18:11:24.877Z,73.09
2023-01-20T18:16:24.862Z,73.10
2023-01-20T18:21:24.716Z,73.09
2023-01-20T18:26:24.696Z,73.07
2023-01-20T18:31:24.702Z,73.09
2023-01-20T18:36:24.623Z,73.06
2023-01-20T18:41:24.464Z,73.05
2023-01-20T18:46:24.451Z,73.08
2023-01-20T18:51:24.323Z,73.12
2023-01-20T18:56:24.276Z,73.17
2023-01-20T19:01:24.227Z,73.22
2023-01-20T19:06:24.143Z,73.24
2023-01-20T19:11:24.081Z,73.25
2023-01-20T19:16:24.027Z,73.32
2023-01-20T19:21:23.938Z,73.36
2023-01-20T19:26:23.893Z,73.41
2023-01-20T19:31:23.912Z,73.46
2023-01-20T19:36:23.758Z,73.52
2023-01-20T19:41:23.750Z,73.57
2023-01-20T19:46:23.705Z,73.66
2023-01-20T19:51:23.566Z,73.75
2023-01-20T19:56:23.545Z,73.81
2023-01-20T20:01:23.570Z,73.84
2023-01-20T20:06:23.383Z,73.85
2023-01-20T20:11:23.305Z,73.88
2023-01-20T20:16:23.289Z,73.86
2023-01-20T20:21:23.214Z,73.86
2023-01-20T20:26:23.137Z,73.88
2023-01-20T20:31:23.123Z,73.91
2023-01-20T20:36:23.025Z,73.93
2023-01-20T20:41:22.943Z,73.94
2023-01-20T20:46:22.964Z,73.94
2023-01-20T20:51:22.943Z,74.05
2023-01-20T20:56:22.794Z,74.03
2023-01-20T21:01:22.771Z,74.05
2023-01-20T21:06:22.650Z,74.07
2023-01-20T21:11:22.566Z,74.08
2023-01-20T21:16:22.625Z,74.10
2023-01-20T21:21:22.426Z,74.14
2023-01-20T21:26:22.393Z,74.17
2023-01-20T21:31:22.383Z,74.16
2023-01-20T21:36:22.276Z,74.15
2023-01-20T21:41:22.164Z,74.16
2023-01-20T21:46:22.165Z,74.18
2023-01-20T21:51:22.037Z,74.21
2023-01-20T21:56:22.005Z,74.29
2023-01-20T22:01:21.920Z,74.30
2023-01-20T22:06:21.887Z,74.34
2023-01-20T22:11:21.782Z,74.38
2023-01-20T22:16:21.740Z,74.53
2023-01-20T22:21:21.667Z,74.51
2023-01-20T22:26:21.604Z,74.54
2023-01-20T22:31:21.558Z,74.61
2023-01-20T22:36:21.501Z,74.61
2023-01-20T22:41:21.407Z,74.67
2023-01-20T22:46:21.354Z,74.71
2023-01-20T22:51:21.318Z,74.75
2023-01-20T22:56:21.231Z,74.71
2023-01-20T23:01:21.184Z,74.76
2023-01-20T23:06:21.096Z,74.77
2023-01-20T23:11:21.028Z,74.75
2023-01-20T23:16:20.987Z,74.79
2023-01-20T23:21:20.943Z,74.77
2023-01-20T23:26:20.844Z,74.84
2023-01-20T23:31:20.857Z,74.86
2023-01-20T23:36:20.734Z,74.84
2023-01-20T23:41:20.608Z,74.84
2023-01-20T23:46:20.596Z,74.83
2023-01-20T23:51:20.564Z,74.84
2023-01-20T23:56:20.461Z,74.81
